sensor_id;sensor_type;location;lat;lon;timestamp;P1;durP1;ratioP1;P2;durP2;ratioP2
4634;SDS011;2330;48.158;11.816;2023-12-22T00:02:19;1.20;;;0.60;;
4634;SDS011;2330;48.158;11.816;2023-12-22T00:04:46;1.98;;;0.80;;
4634;SDS011;2330;48.158;11.816;2023-12-22T00:07:13;6.93;;;0.93;;
4634;SDS011;2330;48.158;11.816;2023-12-22T00:09:40;1.70;;;1.05;;
4634;SDS011;2330;48.158;11.816;2023-12-22T00:12:06;2.30;;;1.05;;
4634;SDS011;2330;48.158;11.816;2023-12-22T00:14:33;7.53;;;1.63;;
4634;SDS011;2330;48.158;11.816;2023-12-22T00:17:00;1.35;;;1.10;;
4634;SDS011;2330;48.158;11.816;2023-12-22T00:19:27;1.52;;;0.80;;
4634;SDS011;2330;48.158;11.816;2023-12-22T00:21:54;3.88;;;1.40;;
4634;SDS011;2330;48.158;11.816;2023-12-22T00:24:20;1.60;;;1.08;;
4634;SDS011;2330;48.158;11.816;2023-12-22T00:26:47;1.58;;;0.85;;
4634;SDS011;2330;48.158;11.816;2023-12-22T00:29:14;0.73;;;0.73;;
4634;SDS011;2330;48.158;11.816;2023-12-22T00:31:44;3.25;;;0.93;;
4634;SDS011;2330;48.158;11.816;2023-12-22T00:34:11;3.63;;;1.00;;
4634;SDS011;2330;48.158;11.816;2023-12-22T00:36:37;1.73;;;0.90;;
4634;SDS011;2330;48.158;11.816;2023-12-22T00:39:04;1.75;;;0.93;;
4634;SDS011;2330;48.158;11.816;2023-12-22T00:41:31;4.25;;;1.00;;
4634;SDS011;2330;48.158;11.816;2023-12-22T00:43:58;1.35;;;0.80;;
4634;SDS011;2330;48.158;11.816;2023-12-22T00:46:24;2.40;;;1.10;;
4634;SDS011;2330;48.158;11.816;2023-12-22T00:48:51;2.80;;;0.80;;
4634;SDS011;2330;48.158;11.816;2023-12-22T00:51:18;1.95;;;0.75;;
4634;SDS011;2330;48.158;11.816;2023-12-22T00:53:45;0.85;;;0.70;;
4634;SDS011;2330;48.158;11.816;2023-12-22T00:56:11;3.67;;;1.00;;
4634;SDS011;2330;48.158;11.816;2023-12-22T00:58:40;0.60;;;0.57;;
4634;SDS011;2330;48.158;11.816;2023-12-22T01:01:07;1.65;;;0.82;;
4634;SDS011;2330;48.158;11.816;2023-12-22T01:03:34;2.92;;;0.90;;
4634;SDS011;2330;48.158;11.816;2023-12-22T01:06:00;1.13;;;0.70;;
4634;SDS011;2330;48.158;11.816;2023-12-22T01:08:28;1.30;;;0.95;;
4634;SDS011;2330;48.158;11.816;2023-12-22T01:10:55;1.45;;;0.98;;
4634;SDS011;2330;48.158;11.816;2023-12-22T01:13:21;1.98;;;0.80;;
4634;SDS011;2330;48.158;11.816;2023-12-22T01:15:48;1.88;;;0.95;;
4634;SDS011;2330;48.158;11.816;2023-12-22T01:18:15;0.90;;;0.70;;
4634;SDS011;2330;48.158;11.816;2023-12-22T01:20:42;0.85;;;0.80;;
4634;SDS011;2330;48.158;11.816;2023-12-22T01:23:09;1.05;;;0.70;;
4634;SDS011;2330;48.158;11.816;2023-12-22T01:25:35;1.88;;;1.00;;
4634;SDS011;2330;48.158;11.816;2023-12-22T01:28:02;2.67;;;0.77;;
4634;SDS011;2330;48.158;11.816;2023-12-22T01:30:31;1.20;;;0.80;;
4634;SDS011;2330;48.158;11.816;2023-12-22T01:32:58;2.58;;;1.13;;
4634;SDS011;2330;48.158;11.816;2023-12-22T01:35:25;2.13;;;1.20;;
4634;SDS011;2330;48.158;11.816;2023-12-22T01:37:51;1.67;;;0.98;;
4634;SDS011;2330;48.158;11.816;2023-12-22T01:40:18;1.50;;;0.90;;
4634;SDS011;2330;48.158;11.816;2023-12-22T01:42:45;1.17;;;0.63;;
4634;SDS011;2330;48.158;11.816;2023-12-22T01:45:13;2.63;;;0.90;;
4634;SDS011;2330;48.158;11.816;2023-12-22T01:47:40;2.30;;;0.90;;
4634;SDS011;2330;48.158;11.816;2023-12-22T01:50:08;4.20;;;0.98;;
4634;SDS011;2330;48.158;11.816;2023-12-22T01:52:38;2.13;;;1.00;;
4634;SDS011;2330;48.158;11.816;2023-12-22T01:55:08;1.08;;;0.75;;
4634;SDS011;2330;48.158;11.816;2023-12-22T01:57:39;2.70;;;0.80;;
4634;SDS011;2330;48.158;11.816;2023-12-22T02:00:08;2.42;;;1.17;;
4634;SDS011;2330;48.158;11.816;2023-12-22T02:02:35;1.02;;;0.80;;
4634;SDS011;2330;48.158;11.816;2023-12-22T02:05:04;1.70;;;0.73;;
4634;SDS011;2330;48.158;11.816;2023-12-22T02:07:35;1.80;;;0.80;;
4634;SDS011;2330;48.158;11.816;2023-12-22T02:10:02;2.22;;;0.60;;
4634;SDS011;2330;48.158;11.816;2023-12-22T02:12:29;1.35;;;0.80;;
4634;SDS011;2330;48.158;11.816;2023-12-22T02:14:56;2.15;;;0.85;;
4634;SDS011;2330;48.158;11.816;2023-12-22T02:17:25;2.67;;;0.85;;
4634;SDS011;2330;48.158;11.816;2023-12-22T02:19:59;2.63;;;0.75;;
4634;SDS011;2330;48.158;11.816;2023-12-22T02:22:30;1.52;;;0.82;;
4634;SDS011;2330;48.158;11.816;2023-12-22T02:24:57;1.77;;;0.80;;
4634;SDS011;2330;48.158;11.816;2023-12-22T02:33:02;1.52;;;0.90;;
4634;SDS011;2330;48.158;11.816;2023-12-22T02:35:32;0.90;;;0.70;;
4634;SDS011;2330;48.158;11.816;2023-12-22T02:38:02;1.95;;;0.75;;
4634;SDS011;2330;48.158;11.816;2023-12-22T02:40:31;2.05;;;0.70;;
4634;SDS011;2330;48.158;11.816;2023-12-22T02:43:02;2.47;;;0.63;;
4634;SDS011;2330;48.158;11.816;2023-12-22T02:45:30;1.25;;;0.90;;
4634;SDS011;2330;48.158;11.816;2023-12-22T02:47:58;1.02;;;0.60;;
4634;SDS011;2330;48.158;11.816;2023-12-22T02:50:25;1.95;;;0.70;;
4634;SDS011;2330;48.158;11.816;2023-12-22T02:52:52;0.88;;;0.77;;
4634;SDS011;2330;48.158;11.816;2023-12-22T02:55:19;1.77;;;0.60;;
4634;SDS011;2330;48.158;11.816;2023-12-22T02:57:45;0.95;;;0.70;;
4634;SDS011;2330;48.158;11.816;2023-12-22T03:00:13;0.95;;;0.77;;
4634;SDS011;2330;48.158;11.816;2023-12-22T03:02:40;1.33;;;0.80;;
4634;SDS011;2330;48.158;11.816;2023-12-22T03:05:06;0.60;;;0.50;;
4634;SDS011;2330;48.158;11.816;2023-12-22T03:07:33;0.80;;;0.60;;
4634;SDS011;2330;48.158;11.816;2023-12-22T03:10:00;1.42;;;0.70;;
4634;SDS011;2330;48.158;11.816;2023-12-22T03:12:27;0.80;;;0.70;;
4634;SDS011;2330;48.158;11.816;2023-12-22T03:14:54;0.90;;;0.80;;
4634;SDS011;2330;48.158;11.816;2023-12-22T03:17:21;0.70;;;0.60;;
4634;SDS011;2330;48.158;11.816;2023-12-22T03:19:48;1.27;;;0.98;;
4634;SDS011;2330;48.158;11.816;2023-12-22T03:22:14;1.88;;;0.82;;
4634;SDS011;2330;48.158;11.816;2023-12-22T03:24:41;0.80;;;0.52;;
4634;SDS011;2330;48.158;11.816;2023-12-22T03:27:08;1.15;;;0.73;;
4634;SDS011;2330;48.158;11.816;2023-12-22T03:29:35;1.35;;;0.63;;
4634;SDS011;2330;48.158;11.816;2023-12-22T03:32:02;1.75;;;0.85;;
4634;SDS011;2330;48.158;11.816;2023-12-22T03:34:29;0.70;;;0.70;;
4634;SDS011;2330;48.158;11.816;2023-12-22T03:36:56;0.80;;;0.60;;
4634;SDS011;2330;48.158;11.816;2023-12-22T03:39:23;0.60;;;0.60;;
4634;SDS011;2330;48.158;11.816;2023-12-22T03:41:49;0.73;;;0.60;;
4634;SDS011;2330;48.158;11.816;2023-12-22T03:44:16;0.82;;;0.82;;
4634;SDS011;2330;48.158;11.816;2023-12-22T03:46:43;1.05;;;0.70;;
4634;SDS011;2330;48.158;11.816;2023-12-22T03:49:10;0.70;;;0.70;;
4634;SDS011;2330;48.158;11.816;2023-12-22T03:51:37;0.70;;;0.70;;
4634;SDS011;2330;48.158;11.816;2023-12-22T03:54:04;1.63;;;0.80;;
4634;SDS011;2330;48.158;11.816;2023-12-22T03:56:31;2.55;;;1.20;;
4634;SDS011;2330;48.158;11.816;2023-12-22T03:58:57;2.88;;;1.17;;
4634;SDS011;2330;48.158;11.816;2023-12-22T04:01:24;3.25;;;0.65;;
4634;SDS011;2330;48.158;11.816;2023-12-22T04:03:51;0.77;;;0.77;;
4634;SDS011;2330;48.158;11.816;2023-12-22T04:06:18;1.00;;;0.80;;
4634;SDS011;2330;48.158;11.816;2023-12-22T04:08:45;0.70;;;0.68;;
4634;SDS011;2330;48.158;11.816;2023-12-22T04:11:11;0.60;;;0.60;;
4634;SDS011;2330;48.158;11.816;2023-12-22T04:13:38;0.70;;;0.70;;
4634;SDS011;2330;48.158;11.816;2023-12-22T04:16:05;0.68;;;0.68;;
4634;SDS011;2330;48.158;11.816;2023-12-22T04:18:32;0.80;;;0.80;;
4634;SDS011;2330;48.158;11.816;2023-12-22T04:20:59;1.10;;;1.05;;
4634;SDS011;2330;48.158;11.816;2023-12-22T04:23:26;3.63;;;1.00;;
4634;SDS011;2330;48.158;11.816;2023-12-22T04:25:53;1.13;;;1.02;;
4634;SDS011;2330;48.158;11.816;2023-12-22T04:28:20;1.05;;;0.93;;
4634;SDS011;2330;48.158;11.816;2023-12-22T04:30:46;0.80;;;0.80;;
4634;SDS011;2330;48.158;11.816;2023-12-22T04:33:13;1.40;;;1.30;;
4634;SDS011;2330;48.158;11.816;2023-12-22T04:35:40;1.75;;;1.50;;
4634;SDS011;2330;48.158;11.816;2023-12-22T04:38:07;1.38;;;1.38;;
4634;SDS011;2330;48.158;11.816;2023-12-22T04:40:34;1.30;;;1.30;;
4634;SDS011;2330;48.158;11.816;2023-12-22T04:43:02;1.60;;;1.13;;
4634;SDS011;2330;48.158;11.816;2023-12-22T04:45:28;1.45;;;1.35;;
4634;SDS011;2330;48.158;11.816;2023-12-22T04:47:55;1.60;;;0.93;;
4634;SDS011;2330;48.158;11.816;2023-12-22T04:50:23;1.33;;;1.10;;
4634;SDS011;2330;48.158;11.816;2023-12-22T04:52:50;1.13;;;1.00;;
4634;SDS011;2330;48.158;11.816;2023-12-22T04:55:17;1.33;;;0.80;;
4634;SDS011;2330;48.158;11.816;2023-12-22T04:57:44;3.40;;;1.00;;
4634;SDS011;2330;48.158;11.816;2023-12-22T05:00:11;3.50;;;1.30;;
4634;SDS011;2330;48.158;11.816;2023-12-22T05:02:39;1.75;;;1.13;;
4634;SDS011;2330;48.158;11.816;2023-12-22T05:05:05;3.15;;;1.17;;
4634;SDS011;2330;48.158;11.816;2023-12-22T05:07:34;6.75;;;1.23;;
4634;SDS011;2330;48.158;11.816;2023-12-22T05:10:01;5.30;;;1.65;;
4634;SDS011;2330;48.158;11.816;2023-12-22T05:12:28;2.45;;;0.90;;
4634;SDS011;2330;48.158;11.816;2023-12-22T05:14:54;5.75;;;1.25;;
4634;SDS011;2330;48.158;11.816;2023-12-22T05:17:22;4.47;;;1.55;;
4634;SDS011;2330;48.158;11.816;2023-12-22T05:19:49;5.45;;;2.20;;
4634;SDS011;2330;48.158;11.816;2023-12-22T05:22:16;4.28;;;1.10;;
4634;SDS011;2330;48.158;11.816;2023-12-22T05:24:43;3.50;;;1.40;;
4634;SDS011;2330;48.158;11.816;2023-12-22T05:27:09;1.73;;;0.90;;
4634;SDS011;2330;48.158;11.816;2023-12-22T05:29:36;2.95;;;1.40;;
4634;SDS011;2330;48.158;11.816;2023-12-22T05:32:03;1.45;;;1.35;;
4634;SDS011;2330;48.158;11.816;2023-12-22T05:34:30;2.25;;;1.52;;
4634;SDS011;2330;48.158;11.816;2023-12-22T05:36:57;3.45;;;1.35;;
4634;SDS011;2330;48.158;11.816;2023-12-22T05:39:24;3.17;;;1.38;;
4634;SDS011;2330;48.158;11.816;2023-12-22T05:41:51;3.03;;;1.15;;
4634;SDS011;2330;48.158;11.816;2023-12-22T05:44:18;2.85;;;1.10;;
4634;SDS011;2330;48.158;11.816;2023-12-22T05:46:44;2.55;;;1.00;;
4634;SDS011;2330;48.158;11.816;2023-12-22T05:49:11;3.28;;;1.13;;
4634;SDS011;2330;48.158;11.816;2023-12-22T05:51:39;0.60;;;0.60;;
4634;SDS011;2330;48.158;11.816;2023-12-22T05:54:09;0.70;;;0.60;;
4634;SDS011;2330;48.158;11.816;2023-12-22T05:56:39;0.60;;;0.60;;
4634;SDS011;2330;48.158;11.816;2023-12-22T05:59:06;1.73;;;0.65;;
4634;SDS011;2330;48.158;11.816;2023-12-22T06:01:33;1.40;;;0.70;;
4634;SDS011;2330;48.158;11.816;2023-12-22T06:04:00;1.40;;;0.70;;
4634;SDS011;2330;48.158;11.816;2023-12-22T06:06:26;0.68;;;0.68;;
4634;SDS011;2330;48.158;11.816;2023-12-22T06:08:54;0.88;;;0.60;;
4634;SDS011;2330;48.158;11.816;2023-12-22T06:11:20;1.05;;;0.60;;
4634;SDS011;2330;48.158;11.816;2023-12-22T06:13:48;0.73;;;0.50;;
4634;SDS011;2330;48.158;11.816;2023-12-22T06:16:15;3.00;;;0.80;;
4634;SDS011;2330;48.158;11.816;2023-12-22T06:18:44;1.45;;;0.60;;
4634;SDS011;2330;48.158;11.816;2023-12-22T06:21:11;1.88;;;0.77;;
4634;SDS011;2330;48.158;11.816;2023-12-22T06:23:38;0.70;;;0.70;;
4634;SDS011;2330;48.158;11.816;2023-12-22T06:26:09;1.77;;;0.90;;
4634;SDS011;2330;48.158;11.816;2023-12-22T06:28:38;1.23;;;0.70;;
4634;SDS011;2330;48.158;11.816;2023-12-22T06:31:07;1.05;;;0.80;;
4634;SDS011;2330;48.158;11.816;2023-12-22T06:33:42;5.57;;;1.40;;
4634;SDS011;2330;48.158;11.816;2023-12-22T06:36:17;1.23;;;0.90;;
4634;SDS011;2330;48.158;11.816;2023-12-22T06:38:51;1.90;;;0.95;;
4634;SDS011;2330;48.158;11.816;2023-12-22T06:41:20;3.42;;;1.40;;
4634;SDS011;2330;48.158;11.816;2023-12-22T06:43:50;1.92;;;1.05;;
4634;SDS011;2330;48.158;11.816;2023-12-22T06:46:18;3.63;;;1.15;;
4634;SDS011;2330;48.158;11.816;2023-12-22T06:48:45;1.70;;;1.00;;
4634;SDS011;2330;48.158;11.816;2023-12-22T06:51:19;1.70;;;0.93;;
4634;SDS011;2330;48.158;11.816;2023-12-22T06:53:50;4.13;;;1.10;;
4634;SDS011;2330;48.158;11.816;2023-12-22T06:56:21;2.00;;;1.30;;
4634;SDS011;2330;48.158;11.816;2023-12-22T06:58:50;3.15;;;1.05;;
4634;SDS011;2330;48.158;11.816;2023-12-22T07:01:22;2.28;;;1.13;;
4634;SDS011;2330;48.158;11.816;2023-12-22T07:03:55;1.35;;;1.08;;
4634;SDS011;2330;48.158;11.816;2023-12-22T07:06:23;3.00;;;1.55;;
4634;SDS011;2330;48.158;11.816;2023-12-22T07:14:19;4.70;;;1.85;;
4634;SDS011;2330;48.158;11.816;2023-12-22T07:16:46;3.08;;;1.38;;
4634;SDS011;2330;48.158;11.816;2023-12-22T07:19:12;2.97;;;1.30;;
4634;SDS011;2330;48.158;11.816;2023-12-22T07:21:40;3.40;;;1.27;;
4634;SDS011;2330;48.158;11.816;2023-12-22T07:24:10;3.13;;;1.60;;
4634;SDS011;2330;48.158;11.816;2023-12-22T07:26:39;2.08;;;1.35;;
4634;SDS011;2330;48.158;11.816;2023-12-22T07:29:06;6.38;;;2.08;;
4634;SDS011;2330;48.158;11.816;2023-12-22T07:31:34;3.70;;;1.60;;
4634;SDS011;2330;48.158;11.816;2023-12-22T07:34:01;3.25;;;1.42;;
4634;SDS011;2330;48.158;11.816;2023-12-22T07:36:28;3.25;;;1.35;;
4634;SDS011;2330;48.158;11.816;2023-12-22T07:38:54;4.40;;;1.30;;
4634;SDS011;2330;48.158;11.816;2023-12-22T07:41:23;4.25;;;1.40;;
4634;SDS011;2330;48.158;11.816;2023-12-22T07:43:50;1.20;;;0.90;;
4634;SDS011;2330;48.158;11.816;2023-12-22T07:46:18;1.10;;;1.00;;
4634;SDS011;2330;48.158;11.816;2023-12-22T07:48:45;3.80;;;1.00;;
4634;SDS011;2330;48.158;11.816;2023-12-22T07:51:13;1.40;;;1.00;;
4634;SDS011;2330;48.158;11.816;2023-12-22T07:53:40;2.55;;;1.10;;
4634;SDS011;2330;48.158;11.816;2023-12-22T07:56:08;2.40;;;1.25;;
4634;SDS011;2330;48.158;11.816;2023-12-22T07:58:38;4.43;;;1.40;;
4634;SDS011;2330;48.158;11.816;2023-12-22T08:01:05;1.70;;;1.33;;
4634;SDS011;2330;48.158;11.816;2023-12-22T08:03:32;2.63;;;1.23;;
4634;SDS011;2330;48.158;11.816;2023-12-22T08:05:59;3.03;;;1.05;;
4634;SDS011;2330;48.158;11.816;2023-12-22T08:08:27;1.77;;;0.90;;
4634;SDS011;2330;48.158;11.816;2023-12-22T08:10:54;2.92;;;1.25;;
4634;SDS011;2330;48.158;11.816;2023-12-22T08:13:21;2.88;;;1.02;;
4634;SDS011;2330;48.158;11.816;2023-12-22T08:15:47;1.30;;;1.10;;
4634;SDS011;2330;48.158;11.816;2023-12-22T08:18:14;4.43;;;1.40;;
4634;SDS011;2330;48.158;11.816;2023-12-22T08:20:41;3.67;;;0.80;;
4634;SDS011;2330;48.158;11.816;2023-12-22T08:23:12;5.15;;;1.00;;
4634;SDS011;2330;48.158;11.816;2023-12-22T08:25:40;2.67;;;0.80;;
4634;SDS011;2330;48.158;11.816;2023-12-22T08:28:11;1.95;;;1.10;;
4634;SDS011;2330;48.158;11.816;2023-12-22T08:30:39;4.40;;;1.13;;
4634;SDS011;2330;48.158;11.816;2023-12-22T08:33:06;2.08;;;1.00;;
4634;SDS011;2330;48.158;11.816;2023-12-22T08:35:33;1.42;;;1.00;;
4634;SDS011;2330;48.158;11.816;2023-12-22T08:38:01;3.65;;;1.60;;
4634;SDS011;2330;48.158;11.816;2023-12-22T08:40:29;1.23;;;1.10;;
4634;SDS011;2330;48.158;11.816;2023-12-22T08:42:56;3.40;;;1.75;;
4634;SDS011;2330;48.158;11.816;2023-12-22T08:45:27;3.35;;;1.20;;
4634;SDS011;2330;48.158;11.816;2023-12-22T08:47:55;3.22;;;1.58;;
4634;SDS011;2330;48.158;11.816;2023-12-22T08:50:22;4.13;;;1.90;;
4634;SDS011;2330;48.158;11.816;2023-12-22T08:52:49;3.58;;;1.55;;
4634;SDS011;2330;48.158;11.816;2023-12-22T08:55:16;5.60;;;1.30;;
4634;SDS011;2330;48.158;11.816;2023-12-22T08:57:43;5.93;;;1.88;;
4634;SDS011;2330;48.158;11.816;2023-12-22T09:00:22;4.68;;;2.05;;
4634;SDS011;2330;48.158;11.816;2023-12-22T09:02:48;5.40;;;2.38;;
4634;SDS011;2330;48.158;11.816;2023-12-22T09:05:15;4.40;;;1.88;;
4634;SDS011;2330;48.158;11.816;2023-12-22T09:07:44;4.72;;;2.33;;
4634;SDS011;2330;48.158;11.816;2023-12-22T09:10:13;5.95;;;2.10;;
4634;SDS011;2330;48.158;11.816;2023-12-22T09:12:40;7.20;;;2.95;;
4634;SDS011;2330;48.158;11.816;2023-12-22T09:15:06;4.65;;;1.77;;
4634;SDS011;2330;48.158;11.816;2023-12-22T09:17:33;11.98;;;2.10;;
4634;SDS011;2330;48.158;11.816;2023-12-22T09:20:01;3.70;;;2.08;;
4634;SDS011;2330;48.158;11.816;2023-12-22T09:22:28;4.68;;;2.17;;
4634;SDS011;2330;48.158;11.816;2023-12-22T09:24:55;4.05;;;2.13;;
4634;SDS011;2330;48.158;11.816;2023-12-22T09:27:22;6.28;;;2.42;;
4634;SDS011;2330;48.158;11.816;2023-12-22T09:29:49;7.18;;;2.10;;
4634;SDS011;2330;48.158;11.816;2023-12-22T09:32:16;6.13;;;2.23;;
4634;SDS011;2330;48.158;11.816;2023-12-22T09:34:43;5.97;;;2.20;;
4634;SDS011;2330;48.158;11.816;2023-12-22T09:37:09;4.40;;;2.38;;
4634;SDS011;2330;48.158;11.816;2023-12-22T09:39:36;3.90;;;2.25;;
4634;SDS011;2330;48.158;11.816;2023-12-22T09:42:03;7.03;;;2.77;;
4634;SDS011;2330;48.158;11.816;2023-12-22T09:44:32;4.45;;;2.10;;
4634;SDS011;2330;48.158;11.816;2023-12-22T09:47:03;6.28;;;2.20;;
4634;SDS011;2330;48.158;11.816;2023-12-22T09:49:33;6.30;;;1.90;;
4634;SDS011;2330;48.158;11.816;2023-12-22T09:52:01;3.63;;;2.00;;
4634;SDS011;2330;48.158;11.816;2023-12-22T09:54:32;3.23;;;1.73;;
4634;SDS011;2330;48.158;11.816;2023-12-22T09:56:59;4.45;;;2.00;;
4634;SDS011;2330;48.158;11.816;2023-12-22T09:59:44;4.40;;;1.60;;
4634;SDS011;2330;48.158;11.816;2023-12-22T10:02:14;1.97;;;1.57;;
4634;SDS011;2330;48.158;11.816;2023-12-22T10:04:41;5.53;;;1.65;;
4634;SDS011;2330;48.158;11.816;2023-12-22T10:07:08;4.10;;;1.70;;
4634;SDS011;2330;48.158;11.816;2023-12-22T10:09:40;2.17;;;1.40;;
4634;SDS011;2330;48.158;11.816;2023-12-22T10:12:09;2.40;;;1.30;;
4634;SDS011;2330;48.158;11.816;2023-12-22T10:14:38;2.90;;;1.37;;
4634;SDS011;2330;48.158;11.816;2023-12-22T10:17:06;5.40;;;1.45;;
4634;SDS011;2330;48.158;11.816;2023-12-22T10:19:33;3.10;;;1.35;;
4634;SDS011;2330;48.158;11.816;2023-12-22T10:22:00;4.18;;;1.10;;
4634;SDS011;2330;48.158;11.816;2023-12-22T10:24:36;3.65;;;1.88;;
4634;SDS011;2330;48.158;11.816;2023-12-22T10:27:08;1.50;;;1.23;;
4634;SDS011;2330;48.158;11.816;2023-12-22T10:29:36;2.03;;;1.05;;
4634;SDS011;2330;48.158;11.816;2023-12-22T10:32:03;2.00;;;1.10;;
4634;SDS011;2330;48.158;11.816;2023-12-22T10:34:33;3.33;;;1.35;;
4634;SDS011;2330;48.158;11.816;2023-12-22T10:37:01;4.18;;;1.00;;
4634;SDS011;2330;48.158;11.816;2023-12-22T10:39:29;1.42;;;1.10;;
4634;SDS011;2330;48.158;11.816;2023-12-22T10:41:56;0.68;;;0.65;;
4634;SDS011;2330;48.158;11.816;2023-12-22T10:44:27;2.25;;;0.90;;
4634;SDS011;2330;48.158;11.816;2023-12-22T10:46:55;1.25;;;1.05;;
4634;SDS011;2330;48.158;11.816;2023-12-22T10:49:22;3.20;;;1.00;;
4634;SDS011;2330;48.158;11.816;2023-12-22T10:51:50;1.00;;;0.73;;
4634;SDS011;2330;48.158;11.816;2023-12-22T10:54:18;1.00;;;0.60;;
4634;SDS011;2330;48.158;11.816;2023-12-22T10:56:45;2.60;;;1.58;;
4634;SDS011;2330;48.158;11.816;2023-12-22T10:59:15;4.45;;;2.30;;
4634;SDS011;2330;48.158;11.816;2023-12-22T11:01:44;1.20;;;1.10;;
4634;SDS011;2330;48.158;11.816;2023-12-22T11:04:17;1.80;;;1.70;;
4634;SDS011;2330;48.158;11.816;2023-12-22T11:06:46;3.45;;;1.27;;
4634;SDS011;2330;48.158;11.816;2023-12-22T11:09:16;2.33;;;1.33;;
4634;SDS011;2330;48.158;11.816;2023-12-22T11:11:43;3.92;;;2.33;;
4634;SDS011;2330;48.158;11.816;2023-12-22T11:14:12;1.60;;;1.50;;
4634;SDS011;2330;48.158;11.816;2023-12-22T11:16:39;2.42;;;2.22;;
4634;SDS011;2330;48.158;11.816;2023-12-22T11:19:14;5.57;;;4.10;;
4634;SDS011;2330;48.158;11.816;2023-12-22T11:21:42;3.92;;;3.40;;
4634;SDS011;2330;48.158;11.816;2023-12-22T11:24:09;3.00;;;2.10;;
4634;SDS011;2330;48.158;11.816;2023-12-22T11:26:39;3.45;;;2.95;;
4634;SDS011;2330;48.158;11.816;2023-12-22T11:29:08;4.68;;;1.88;;
4634;SDS011;2330;48.158;11.816;2023-12-22T11:31:36;4.07;;;2.13;;
4634;SDS011;2330;48.158;11.816;2023-12-22T11:34:05;2.88;;;1.30;;
4634;SDS011;2330;48.158;11.816;2023-12-22T11:36:40;4.00;;;1.13;;
4634;SDS011;2330;48.158;11.816;2023-12-22T11:39:11;2.97;;;1.30;;
4634;SDS011;2330;48.158;11.816;2023-12-22T11:41:38;2.77;;;1.50;;
4634;SDS011;2330;48.158;11.816;2023-12-22T11:44:07;3.88;;;1.30;;
4634;SDS011;2330;48.158;11.816;2023-12-22T11:46:34;6.57;;;1.77;;
4634;SDS011;2330;48.158;11.816;2023-12-22T11:49:01;1.55;;;1.30;;
4634;SDS011;2330;48.158;11.816;2023-12-22T11:51:32;1.98;;;1.27;;
4634;SDS011;2330;48.158;11.816;2023-12-22T11:54:02;7.68;;;1.67;;
4634;SDS011;2330;48.158;11.816;2023-12-22T11:56:29;2.13;;;1.60;;
4634;SDS011;2330;48.158;11.816;2023-12-22T11:58:57;1.60;;;1.45;;
4634;SDS011;2330;48.158;11.816;2023-12-22T12:01:26;5.75;;;2.13;;
4634;SDS011;2330;48.158;11.816;2023-12-22T12:03:59;2.20;;;1.33;;
4634;SDS011;2330;48.158;11.816;2023-12-22T12:09:01;3.58;;;1.75;;
4634;SDS011;2330;48.158;11.816;2023-12-22T12:14:22;1.75;;;1.20;;
4634;SDS011;2330;48.158;11.816;2023-12-22T12:17:05;3.72;;;1.40;;
4634;SDS011;2330;48.158;11.816;2023-12-22T12:19:35;4.25;;;1.65;;
4634;SDS011;2330;48.158;11.816;2023-12-22T12:22:03;1.52;;;1.35;;
4634;SDS011;2330;48.158;11.816;2023-12-22T12:24:31;1.57;;;1.33;;
4634;SDS011;2330;48.158;11.816;2023-12-22T12:26:58;2.15;;;1.73;;
4634;SDS011;2330;48.158;11.816;2023-12-22T12:29:25;1.53;;;1.30;;
4634;SDS011;2330;48.158;11.816;2023-12-22T12:31:52;4.40;;;1.42;;
4634;SDS011;2330;48.158;11.816;2023-12-22T12:34:19;2.53;;;1.38;;
4634;SDS011;2330;48.158;11.816;2023-12-22T12:36:47;2.30;;;1.30;;
4634;SDS011;2330;48.158;11.816;2023-12-22T12:39:16;2.15;;;1.30;;
4634;SDS011;2330;48.158;11.816;2023-12-22T12:45:34;1.73;;;1.63;;
4634;SDS011;2330;48.158;11.816;2023-12-22T12:48:02;2.75;;;1.60;;
4634;SDS011;2330;48.158;11.816;2023-12-22T12:50:32;2.80;;;1.75;;
4634;SDS011;2330;48.158;11.816;2023-12-22T12:52:59;1.70;;;1.60;;
4634;SDS011;2330;48.158;11.816;2023-12-22T12:55:26;4.10;;;1.77;;
4634;SDS011;2330;48.158;11.816;2023-12-22T12:57:55;3.38;;;1.60;;
4634;SDS011;2330;48.158;11.816;2023-12-22T13:00:29;6.22;;;2.35;;
4634;SDS011;2330;48.158;11.816;2023-12-22T13:03:01;2.60;;;1.60;;
4634;SDS011;2330;48.158;11.816;2023-12-22T13:05:32;2.60;;;1.70;;
4634;SDS011;2330;48.158;11.816;2023-12-22T13:08:12;2.83;;;2.00;;
4634;SDS011;2330;48.158;11.816;2023-12-22T13:10:39;2.30;;;1.40;;
4634;SDS011;2330;48.158;11.816;2023-12-22T13:13:08;3.25;;;1.35;;
4634;SDS011;2330;48.158;11.816;2023-12-22T13:15:35;2.28;;;1.35;;
4634;SDS011;2330;48.158;11.816;2023-12-22T13:18:05;4.93;;;1.60;;
4634;SDS011;2330;48.158;11.816;2023-12-22T13:20:32;4.77;;;1.40;;
4634;SDS011;2330;48.158;11.816;2023-12-22T13:23:00;1.87;;;1.63;;
4634;SDS011;2330;48.158;11.816;2023-12-22T13:25:28;6.60;;;5.47;;
4634;SDS011;2330;48.158;11.816;2023-12-22T13:28:07;3.30;;;1.77;;
4634;SDS011;2330;48.158;11.816;2023-12-22T13:30:37;5.03;;;1.25;;
4634;SDS011;2330;48.158;11.816;2023-12-22T13:33:08;1.95;;;1.02;;
4634;SDS011;2330;48.158;11.816;2023-12-22T13:35:37;1.70;;;1.30;;
4634;SDS011;2330;48.158;11.816;2023-12-22T13:38:08;3.20;;;1.85;;
4634;SDS011;2330;48.158;11.816;2023-12-22T13:40:37;2.58;;;1.48;;
4634;SDS011;2330;48.158;11.816;2023-12-22T13:43:05;1.38;;;1.10;;
4634;SDS011;2330;48.158;11.816;2023-12-22T13:45:34;2.03;;;1.48;;
4634;SDS011;2330;48.158;11.816;2023-12-22T13:48:01;1.98;;;1.50;;
4634;SDS011;2330;48.158;11.816;2023-12-22T13:50:28;2.92;;;1.80;;
4634;SDS011;2330;48.158;11.816;2023-12-22T13:52:55;2.75;;;1.73;;
4634;SDS011;2330;48.158;11.816;2023-12-22T13:55:22;3.00;;;2.25;;
4634;SDS011;2330;48.158;11.816;2023-12-22T13:57:58;3.03;;;1.70;;
4634;SDS011;2330;48.158;11.816;2023-12-22T14:00:29;4.90;;;1.92;;
4634;SDS011;2330;48.158;11.816;2023-12-22T14:03:00;3.53;;;2.70;;
4634;SDS011;2330;48.158;11.816;2023-12-22T14:05:28;3.25;;;2.30;;
4634;SDS011;2330;48.158;11.816;2023-12-22T14:08:00;2.70;;;2.40;;
4634;SDS011;2330;48.158;11.816;2023-12-22T14:10:27;2.63;;;1.90;;
4634;SDS011;2330;48.158;11.816;2023-12-22T14:12:54;4.30;;;2.20;;
4634;SDS011;2330;48.158;11.816;2023-12-22T14:15:21;2.92;;;2.10;;
4634;SDS011;2330;48.158;11.816;2023-12-22T14:17:56;2.67;;;2.42;;
4634;SDS011;2330;48.158;11.816;2023-12-22T14:20:23;2.15;;;1.67;;
4634;SDS011;2330;48.158;11.816;2023-12-22T14:22:51;3.03;;;1.73;;
4634;SDS011;2330;48.158;11.816;2023-12-22T14:25:17;3.42;;;2.17;;
4634;SDS011;2330;48.158;11.816;2023-12-22T14:27:44;4.82;;;2.15;;
4634;SDS011;2330;48.158;11.816;2023-12-22T14:30:11;3.33;;;1.95;;
4634;SDS011;2330;48.158;11.816;2023-12-22T14:32:38;4.45;;;1.98;;
4634;SDS011;2330;48.158;11.816;2023-12-22T14:35:05;2.50;;;1.73;;
4634;SDS011;2330;48.158;11.816;2023-12-22T14:37:32;5.00;;;1.90;;
4634;SDS011;2330;48.158;11.816;2023-12-22T14:40:00;2.00;;;1.80;;
4634;SDS011;2330;48.158;11.816;2023-12-22T14:42:27;2.42;;;1.80;;
4634;SDS011;2330;48.158;11.816;2023-12-22T14:44:54;1.80;;;1.70;;
4634;SDS011;2330;48.158;11.816;2023-12-22T14:47:20;2.78;;;1.30;;
4634;SDS011;2330;48.158;11.816;2023-12-22T14:49:47;1.08;;;1.00;;
4634;SDS011;2330;48.158;11.816;2023-12-22T14:52:14;1.92;;;1.17;;
4634;SDS011;2330;48.158;11.816;2023-12-22T14:54:41;3.90;;;1.83;;
4634;SDS011;2330;48.158;11.816;2023-12-22T14:57:08;1.60;;;1.10;;
4634;SDS011;2330;48.158;11.816;2023-12-22T14:59:35;2.58;;;1.15;;
4634;SDS011;2330;48.158;11.816;2023-12-22T15:02:02;1.42;;;1.00;;
4634;SDS011;2330;48.158;11.816;2023-12-22T15:04:31;2.15;;;1.95;;
4634;SDS011;2330;48.158;11.816;2023-12-22T15:06:59;1.30;;;1.10;;
4634;SDS011;2330;48.158;11.816;2023-12-22T15:09:27;1.60;;;1.45;;
4634;SDS011;2330;48.158;11.816;2023-12-22T15:11:54;1.38;;;0.90;;
4634;SDS011;2330;48.158;11.816;2023-12-22T15:14:22;1.10;;;1.10;;
4634;SDS011;2330;48.158;11.816;2023-12-22T15:16:49;3.85;;;0.90;;
4634;SDS011;2330;48.158;11.816;2023-12-22T15:19:19;2.13;;;1.98;;
4634;SDS011;2330;48.158;11.816;2023-12-22T15:21:46;1.83;;;1.73;;
4634;SDS011;2330;48.158;11.816;2023-12-22T15:24:13;1.83;;;1.23;;
4634;SDS011;2330;48.158;11.816;2023-12-22T15:26:40;1.25;;;1.15;;